Terminal Aerodrome Forecast
Issued by NWS

Home | Current Version | Previous Version | Graphics & Text | Print | Product List | Glossary On
Versions: 1 2 3 4 5 6 7 8 9 10 11 12 13 14 15 16 17 18 19 20
000
FTUS43 KTOP 220541
TAFMHK
TAF
KMHK 220541Z 2206/2306 20005KT P6SM FEW250
     FM221000 21005KT P6SM FEW250 WS020/22040KT
     FM221400 21010KT P6SM FEW250
     FM222000 24009KT P6SM FEW250
     FM222300 34005KT P6SM FEW250=

USA.gov is the U.S. government's official web portal to all federal, state and local government web resources and services.